Basingstoke, United Kingdom
Current Conditions -  °F | °C
As of 8:50 AM on Friday 24 Oct 2014 (Local Time) from EGVO Reporting Station
Broken Clouds Broken Clouds  
Wind Chill: 14°   Ceiling: 700
Heat Index: 14°   Visibility: 6mi
Dew Point: 13°   Wind: 10mph
Humidity: 94%   Direction: 200°SSW
Pressure: 29.97"   Gusts: NA
Location:  51.26°N, 1.08°W
Report Text: EGVO 240750Z 20009KT 9999 BKN007 BKN080 14/13 Q1015 GRN NOSIG
Loading
Personal Weather Stations






























Interactive Weather Map
Tropical Storm Tracking
New forecast layout! Learn more

10-Day Weather Forecast

Advertisements
Track Severe Weather on mobile